createdAt,value
2019-05-30T00:00:17.242Z,54.5
2019-05-30T00:00:53.986Z,54.41
2019-05-30T00:01:34.530Z,54.7
2019-05-30T00:02:15.107Z,54.91
2019-05-30T00:02:56.814Z,54.5
2019-05-30T00:03:36.234Z,54.5
2019-05-30T00:04:16.842Z,54.5
2019-05-30T00:04:58.145Z,54.5
2019-05-30T00:05:37.945Z,54.5
2019-05-30T00:06:18.498Z,54.6
2019-05-30T00:07:00.424Z,55.08
2019-05-30T00:07:39.765Z,54.7
2019-05-30T00:08:20.327Z,55.08
2019-05-30T00:09:00.897Z,54.99
2019-05-30T00:09:41.502Z,55.27
2019-05-30T00:10:22.067Z,55.46
2019-05-30T00:11:02.827Z,55.18
2019-05-30T00:11:43.187Z,54.89
2019-05-30T00:12:23.767Z,54.89
2019-05-30T00:13:05.139Z,55.36
2019-05-30T00:13:44.879Z,55.94
2019-05-30T00:14:25.433Z,55.36
2019-05-30T00:15:06.551Z,55.55
2019-05-30T00:15:46.596Z,55.65
2019-05-30T00:16:27.147Z,55.65
2019-05-30T00:17:07.701Z,55.84
2019-05-30T00:17:48.278Z,56.13
2019-05-30T00:18:28.828Z,56.13
2019-05-30T00:19:09.393Z,56.23
2019-05-30T00:19:49.956Z,56.51
2019-05-30T00:20:30.545Z,56.51
2019-05-30T00:21:11.102Z,56.04
2019-05-30T00:21:51.680Z,55.75
2019-05-30T00:22:32.239Z,55.46
2019-05-30T00:23:13.332Z,55.36
2019-05-30T00:23:53.371Z,55.46
2019-05-30T00:24:33.944Z,55.55
2019-05-30T00:25:14.497Z,55.65
2019-05-30T00:25:55.254Z,55.75
2019-05-30T00:26:35.628Z,55.65
2019-05-30T00:27:16.194Z,55.84
2019-05-30T00:27:57.047Z,55.65
2019-05-30T00:28:37.378Z,55.94
2019-05-30T00:29:17.960Z,55.94
2019-05-30T00:29:59.281Z,55.65
2019-05-30T00:30:39.104Z,55.84
2019-05-30T00:31:19.667Z,55.46
2019-05-30T00:32:01.505Z,56.32
2019-05-30T00:32:40.794Z,56.32
2019-05-30T00:33:21.352Z,56.23
2019-05-30T00:34:02.501Z,56.32
2019-05-30T00:34:42.469Z,56.13
2019-05-30T00:35:23.035Z,56.41
2019-05-30T00:36:03.906Z,56.6
2019-05-30T00:36:44.155Z,56.51
2019-05-30T00:37:24.737Z,56.8
2019-05-30T00:38:06.063Z,56.99
2019-05-30T00:38:45.860Z,56.41
2019-05-30T00:39:26.429Z,56.41
2019-05-30T00:40:07.012Z,56.7
2019-05-30T00:40:47.579Z,56.8
2019-05-30T00:41:28.144Z,56.89
2019-05-30T00:42:08.701Z,57.09
2019-05-30T00:42:49.264Z,56.99
2019-05-30T00:43:29.822Z,56.99
2019-05-30T00:44:10.386Z,56.96
2019-05-30T00:44:50.983Z,56.99
2019-05-30T00:45:31.561Z,57.34
2019-05-30T00:46:12.127Z,57.15
2019-05-30T00:46:52.752Z,57.15
2019-05-30T00:47:33.280Z,57.82
2019-05-30T00:48:13.831Z,57.75
2019-05-30T00:48:54.381Z,57.72
2019-05-30T00:49:34.936Z,57.65
2019-05-30T00:50:15.516Z,57.65
2019-05-30T00:50:56.367Z,57.72
2019-05-30T00:51:36.652Z,58.14
2019-05-30T00:52:17.208Z,58.2
2019-05-30T00:52:58.794Z,58.01
2019-05-30T00:53:38.376Z,58.2
2019-05-30T00:54:18.950Z,58.04
2019-05-30T00:55:00.617Z,58.11
2019-05-30T00:55:40.110Z,58.11
2019-05-30T00:56:20.680Z,57.92
2019-05-30T00:57:01.253Z,57.82
2019-05-30T00:57:41.815Z,57.72
2019-05-30T00:58:22.400Z,57.92
2019-05-30T00:59:02.938Z,57.92
2019-05-30T00:59:43.498Z,58.01
2019-05-30T01:00:39.549Z,58.2
2019-05-30T01:01:05.127Z,58.01
2019-05-30T01:01:45.169Z,57.82
2019-05-30T01:02:25.727Z,58.58
2019-05-30T01:03:07.254Z,58.48
2019-05-30T01:03:46.862Z,58.11
2019-05-30T01:04:27.426Z,58.77
2019-05-30T01:05:08.262Z,58.58
2019-05-30T01:05:48.548Z,58.58
2019-05-30T01:06:29.105Z,58.58
2019-05-30T01:07:09.664Z,58.87
2019-05-30T01:07:50.223Z,59.16
2019-05-30T01:08:30.797Z,58.97
2019-05-30T01:09:11.370Z,59.44
2019-05-30T01:09:51.931Z,59.25
2019-05-30T01:10:32.480Z,59.25
2019-05-30T01:11:13.045Z,59.63
2019-05-30T01:11:53.607Z,59.34
2019-05-30T01:12:34.207Z,59.53
2019-05-30T01:13:14.770Z,59.82
2019-05-30T01:13:55.336Z,60.02
2019-05-30T01:14:35.894Z,60.3
2019-05-30T01:15:16.457Z,60.3
2019-05-30T01:15:57.016Z,60.21
2019-05-30T01:16:37.591Z,60.3
2019-05-30T01:17:18.179Z,60.02
2019-05-30T01:17:59.071Z,60.11
2019-05-30T01:18:39.334Z,59.73
2019-05-30T01:19:19.890Z,59.34
2019-05-30T01:20:01.151Z,59.34
2019-05-30T01:20:41.010Z,59.34
2019-05-30T01:21:21.569Z,59.53
2019-05-30T01:22:03.372Z,59.34
2019-05-30T01:22:42.790Z,59.44
2019-05-30T01:23:23.350Z,59.53
2019-05-30T01:24:03.911Z,59.53
2019-05-30T01:24:44.477Z,59.34
2019-05-30T01:25:25.032Z,59.25
2019-05-30T01:26:05.595Z,59.44
2019-05-30T01:26:46.159Z,59.34
2019-05-30T01:27:26.718Z,59.44
2019-05-30T01:28:07.816Z,59.92
2019-05-30T01:28:47.835Z,59.92
2019-05-30T01:29:28.394Z,59.44
2019-05-30T01:30:08.951Z,59.34
2019-05-30T01:30:59.314Z,59.44
2019-05-30T01:31:30.080Z,59.25
2019-05-30T01:32:10.636Z,59.25
2019-05-30T01:32:51.204Z,59.34
2019-05-30T01:33:31.768Z,59.44
2019-05-30T01:34:12.338Z,59.53
2019-05-30T01:34:52.913Z,59.53
2019-05-30T01:35:33.472Z,59.53
2019-05-30T01:36:14.031Z,59.53
2019-05-30T01:36:54.594Z,59.73
2019-05-30T01:37:35.213Z,59.34
2019-05-30T01:38:15.762Z,59.25
2019-05-30T01:38:57.589Z,59.44
2019-05-30T01:39:36.886Z,59.16
2019-05-30T01:40:17.449Z,59.25
2019-05-30T01:40:58.015Z,59.82
2019-05-30T01:41:38.575Z,59.53
2019-05-30T01:42:19.132Z,59.53
2019-05-30T01:42:59.943Z,59.34
2019-05-30T01:43:40.250Z,59.34
2019-05-30T01:44:20.814Z,59.53
2019-05-30T01:45:02.414Z,59.16
2019-05-30T01:45:41.969Z,59.44
2019-05-30T01:46:22.529Z,59.44
2019-05-30T01:47:04.174Z,59.53
2019-05-30T01:47:43.649Z,59.73
2019-05-30T01:48:24.209Z,60.02
2019-05-30T01:49:04.782Z,59.63
2019-05-30T01:49:45.379Z,59.73
2019-05-30T01:50:25.908Z,60.02
2019-05-30T01:51:06.601Z,60.02
2019-05-30T01:51:47.055Z,60.02
2019-05-30T01:52:27.602Z,60.02
2019-05-30T01:53:08.827Z,60.39
2019-05-30T01:53:48.709Z,60.49
2019-05-30T01:54:29.276Z,60.3
2019-05-30T01:55:09.838Z,60.11
2019-05-30T01:55:50.402Z,59.92
2019-05-30T01:56:30.978Z,60.3
2019-05-30T01:57:11.531Z,60.3
2019-05-30T01:57:52.084Z,60.49
2019-05-30T01:58:32.658Z,60.3
2019-05-30T01:59:13.230Z,60.3
2019-05-30T01:59:53.794Z,60.49
2019-05-30T02:00:34.369Z,60.68
2019-05-30T02:01:23.942Z,60.58
2019-05-30T02:01:55.580Z,60.49
2019-05-30T02:02:36.143Z,60.49
2019-05-30T02:03:16.719Z,60.27
2019-05-30T02:03:57.278Z,60.3
2019-05-30T02:04:37.839Z,60.39
2019-05-30T02:05:18.424Z,60.39
2019-05-30T02:05:59.018Z,60.58
2019-05-30T02:06:39.554Z,60.55
2019-05-30T02:07:20.121Z,60.84
2019-05-30T02:08:01.008Z,60.94
2019-05-30T02:08:41.261Z,61.04
2019-05-30T02:09:21.846Z,60.65
2019-05-30T02:10:03.255Z,60.94
2019-05-30T02:10:42.965Z,60.84
2019-05-30T02:11:23.525Z,60.75
2019-05-30T02:12:05.460Z,60.84
2019-05-30T02:12:44.670Z,60.84
2019-05-30T02:13:25.238Z,60.94
2019-05-30T02:14:05.810Z,60.46
2019-05-30T02:14:46.382Z,60.75
2019-05-30T02:15:27.009Z,60.84
2019-05-30T02:16:07.859Z,60.84
2019-05-30T02:16:48.145Z,60.84
2019-05-30T02:17:28.728Z,61.32
2019-05-30T02:18:09.952Z,60.84
2019-05-30T02:18:49.846Z,60.94
2019-05-30T02:19:30.402Z,60.75
2019-05-30T02:20:10.966Z,60.94
2019-05-30T02:20:51.529Z,60.75
2019-05-30T02:21:32.098Z,61.22
2019-05-30T02:22:12.668Z,60.84
2019-05-30T02:22:53.236Z,60.75
2019-05-30T02:23:33.815Z,60.94
2019-05-30T02:24:14.389Z,61.6
2019-05-30T02:24:54.961Z,61.51
2019-05-30T02:25:35.524Z,61.7
2019-05-30T02:26:16.087Z,61.6
2019-05-30T02:26:56.650Z,61.41
2019-05-30T02:30:12.225Z,61.41
2019-05-30T02:30:51.199Z,61.6
2019-05-30T02:31:38.791Z,61.51
2019-05-30T02:32:12.310Z,61.32
2019-05-30T02:32:52.871Z,61.8
2019-05-30T02:33:33.424Z,61.8
2019-05-30T02:34:13.983Z,61.7
2019-05-30T02:34:54.536Z,61.51
2019-05-30T02:35:35.087Z,61.6
2019-05-30T02:36:15.647Z,61.8
2019-05-30T02:36:56.208Z,61.99
2019-05-30T02:38:43.760Z,61.99
2019-05-30T02:39:24.322Z,61.8
2019-05-30T02:40:07.120Z,61.7
2019-05-30T02:40:45.478Z,61.8
2019-05-30T02:41:26.028Z,61.8
2019-05-30T02:42:07.292Z,61.51
2019-05-30T02:42:47.151Z,61.99
2019-05-30T02:43:27.720Z,62.18
2019-05-30T02:44:10.178Z,61.89
2019-05-30T02:44:48.903Z,62.27
2019-05-30T02:45:29.485Z,62.27
2019-05-30T02:46:12.019Z,62.18
2019-05-30T02:49:11.799Z,62.08
2019-05-30T02:49:49.937Z,62.27
2019-05-30T02:50:30.493Z,62.18
2019-05-30T02:51:12.566Z,61.99
2019-05-30T02:51:51.622Z,61.99
2019-05-30T02:52:32.188Z,62.18
2019-05-30T02:53:13.350Z,62.08
2019-05-30T02:53:53.298Z,61.99
2019-05-30T02:54:33.856Z,62.08
2019-05-30T02:55:14.453Z,62.18
2019-05-30T02:55:54.998Z,62.56
2019-05-30T02:56:35.559Z,62.37
2019-05-30T02:57:16.147Z,62.08
2019-05-30T02:57:56.738Z,62.27
2019-05-30T02:58:41.323Z,62.46
2019-05-30T02:59:21.906Z,62.18
2019-05-30T03:00:04.553Z,62.08
2019-05-30T03:00:43.049Z,62.27
2019-05-30T03:01:23.597Z,62.27
2019-05-30T03:02:08.768Z,62.18
2019-05-30T03:02:44.729Z,62.08
2019-05-30T03:03:25.315Z,61.96
2019-05-30T03:04:06.432Z,61.99
2019-05-30T03:04:46.458Z,62.08
2019-05-30T03:05:27.016Z,62.08
2019-05-30T03:06:09.113Z,61.86
2019-05-30T03:06:48.140Z,62.27
2019-05-30T03:07:28.696Z,62.24
2019-05-30T03:08:11.508Z,62.37
2019-05-30T03:08:49.843Z,62.43
2019-05-30T03:09:30.413Z,62.43
2019-05-30T03:10:14.462Z,62.24
2019-05-30T03:10:51.533Z,62.37
2019-05-30T03:11:32.109Z,62.05
2019-05-30T03:12:13.347Z,62.34
2019-05-30T03:12:53.220Z,62.27
2019-05-30T03:13:33.798Z,62.43
2019-05-30T03:14:18.978Z,62.05
2019-05-30T03:14:54.957Z,62.15
2019-05-30T03:15:35.538Z,62.24
2019-05-30T03:16:16.125Z,62.37
2019-05-30T03:16:56.684Z,62.15
2019-05-30T03:17:37.246Z,62.34
2019-05-30T03:18:17.857Z,62.18
2019-05-30T03:18:58.441Z,62.46
2019-05-30T03:19:39.027Z,62.27
2019-05-30T03:20:23.025Z,62.18
2019-05-30T03:21:00.152Z,61.96
2019-05-30T03:21:40.788Z,61.96
2019-05-30T03:22:21.356Z,61.86
2019-05-30T03:23:03.052Z,61.96
2019-05-30T03:23:42.510Z,62.15
2019-05-30T03:24:23.096Z,62.15
2019-05-30T03:25:05.578Z,61.96
2019-05-30T03:25:44.189Z,61.96
2019-05-30T03:26:24.761Z,61.96
2019-05-30T03:27:06.811Z,62.18
2019-05-30T03:27:45.932Z,62.05
2019-05-30T03:28:26.515Z,61.86
2019-05-30T03:29:07.711Z,62.43
2019-05-30T03:29:47.658Z,62.34
2019-05-30T03:30:29.544Z,62.43
2019-05-30T03:31:21.093Z,62.24
2019-05-30T03:31:49.831Z,62.24
2019-05-30T03:33:01.528Z,62.52
2019-05-30T03:33:30.994Z,62.52
2019-05-30T03:33:51.567Z,62.62
2019-05-30T03:34:32.132Z,62.52
2019-05-30T03:35:23.617Z,62.81
2019-05-30T03:35:53.307Z,62.81
2019-05-30T03:36:33.921Z,62.72
2019-05-30T03:37:26.392Z,62.62
2019-05-30T03:37:55.071Z,62.43
2019-05-30T03:38:35.643Z,63
2019-05-30T03:39:16.213Z,62.52
2019-05-30T03:39:56.775Z,63.1
2019-05-30T03:40:37.389Z,62.91
2019-05-30T03:41:17.962Z,62.91
2019-05-30T03:41:58.546Z,62.72
2019-05-30T03:42:39.123Z,62.62
2019-05-30T03:43:19.738Z,62.91
2019-05-30T03:44:00.310Z,62.91
2019-05-30T03:44:40.903Z,62.91
2019-05-30T03:45:21.456Z,62.43
2019-05-30T03:46:03.901Z,63.2
2019-05-30T03:46:42.603Z,63
2019-05-30T03:47:23.209Z,62.81
2019-05-30T03:48:04.232Z,63.1
2019-05-30T03:48:44.323Z,63.67
2019-05-30T03:49:24.870Z,62.81
2019-05-30T03:50:07.246Z,63.1
2019-05-30T03:50:46.002Z,63.1
2019-05-30T03:51:26.560Z,63.48
2019-05-30T03:52:09.497Z,63.29
2019-05-30T03:52:47.689Z,63.67
2019-05-30T03:53:28.255Z,63.67
2019-05-30T03:54:09.791Z,63.67
2019-05-30T03:54:49.467Z,63.57
2019-05-30T03:55:30.013Z,63.76
2019-05-30T03:56:11.978Z,63.39
2019-05-30T03:56:51.156Z,63.1
2019-05-30T03:57:31.730Z,63.48
2019-05-30T03:58:13.889Z,63.57
2019-05-30T03:58:52.863Z,63.67
2019-05-30T03:59:33.437Z,63.57
2019-05-30T04:00:15.988Z,63.86
2019-05-30T04:00:54.553Z,64.05
2019-05-30T04:01:35.136Z,64.15
2019-05-30T04:02:16.014Z,63.86
2019-05-30T04:02:58.868Z,63.86
2019-05-30T04:03:36.826Z,64.05
2019-05-30T04:04:19.014Z,63.86
2019-05-30T04:04:57.972Z,64.15
2019-05-30T04:05:38.533Z,64.15
2019-05-30T04:06:19.338Z,63.96
2019-05-30T04:06:59.680Z,64.43
2019-05-30T04:07:40.244Z,64.05
2019-05-30T04:08:20.808Z,63.96
2019-05-30T04:09:01.372Z,63.76
2019-05-30T04:09:41.949Z,63.48
2019-05-30T04:10:22.538Z,63.86
2019-05-30T04:11:03.117Z,63.96
2019-05-30T04:11:43.686Z,63.57
2019-05-30T04:12:24.280Z,64.05
2019-05-30T04:13:04.843Z,64.05
2019-05-30T04:13:45.398Z,64.34
2019-05-30T04:14:25.995Z,63.86
2019-05-30T04:15:07.933Z,64.15
2019-05-30T04:15:47.139Z,64.24
2019-05-30T04:16:27.705Z,64.05
2019-05-30T04:17:10.462Z,63.96
2019-05-30T04:17:48.836Z,63.96
2019-05-30T04:18:29.386Z,64.05
2019-05-30T04:19:10.055Z,64.15
2019-05-30T04:19:50.514Z,64.15
2019-05-30T04:20:31.099Z,63.96
2019-05-30T04:21:13.829Z,64.05
2019-05-30T04:21:52.227Z,64.15
2019-05-30T04:22:32.786Z,64.05
2019-05-30T04:23:14.769Z,63.96
2019-05-30T04:23:53.901Z,64.15
2019-05-30T04:24:34.445Z,63.96
2019-05-30T04:25:16.614Z,64.24
2019-05-30T04:25:59.988Z,64.05
2019-05-30T04:26:36.169Z,64.05
2019-05-30T04:27:18.429Z,63.96
2019-05-30T04:27:57.258Z,64.34
2019-05-30T04:28:37.843Z,64.15
2019-05-30T04:29:18.885Z,63.86
2019-05-30T04:29:59.006Z,64.15
2019-05-30T04:30:39.842Z,64.05
2019-05-30T04:31:20.404Z,63.96
2019-05-30T04:32:00.963Z,63.76
2019-05-30T04:32:41.544Z,63.96
2019-05-30T04:33:32.260Z,63.67
2019-05-30T04:34:02.676Z,63.39
2019-05-30T04:34:43.270Z,63
2019-05-30T04:35:23.829Z,63.2
2019-05-30T04:36:04.379Z,63.2
2019-05-30T04:36:44.955Z,63.1
2019-05-30T04:37:25.580Z,63
2019-05-30T04:38:06.142Z,62.91
2019-05-30T04:38:46.729Z,63
2019-05-30T04:39:27.324Z,63.2
2019-05-30T04:40:08.521Z,62.91
2019-05-30T04:40:48.489Z,62.91
2019-05-30T04:41:29.053Z,63.29
2019-05-30T04:42:11.156Z,63
2019-05-30T04:42:50.194Z,62.91
2019-05-30T04:43:30.764Z,62.91
2019-05-30T04:44:11.913Z,63
2019-05-30T04:44:51.986Z,63
2019-05-30T04:45:32.548Z,63
2019-05-30T04:46:14.783Z,62.43
2019-05-30T04:46:53.737Z,62.91
2019-05-30T04:47:34.325Z,62.43
2019-05-30T04:48:15.964Z,62.52
2019-05-30T04:48:55.491Z,62.05
2019-05-30T04:49:36.067Z,62.43
2019-05-30T04:50:18.577Z,62.34
2019-05-30T04:50:57.255Z,62.43
2019-05-30T04:51:37.852Z,62.24
2019-05-30T04:52:22.593Z,62.24
2019-05-30T04:52:58.997Z,62.34
2019-05-30T04:53:39.577Z,62.62
2019-05-30T04:54:21.349Z,62.43
2019-05-30T04:55:00.738Z,63.2
2019-05-30T04:55:41.317Z,63
2019-05-30T04:56:22.228Z,63.1
2019-05-30T04:57:02.444Z,63.2
2019-05-30T04:57:43.021Z,63
2019-05-30T04:58:24.419Z,63
2019-05-30T04:59:04.228Z,63
2019-05-30T04:59:44.782Z,63.1
2019-05-30T05:00:25.325Z,63.1
2019-05-30T05:01:05.912Z,63
2019-05-30T05:01:46.514Z,62.91
2019-05-30T05:02:27.125Z,62.62
2019-05-30T05:03:07.694Z,63.23
2019-05-30T05:03:48.283Z,63
2019-05-30T05:04:28.845Z,63
2019-05-30T05:05:09.461Z,62.52
2019-05-30T05:05:50.047Z,62.65
2019-05-30T05:06:30.635Z,62.43
2019-05-30T05:07:11.554Z,62.34
2019-05-30T05:07:51.794Z,62.08
2019-05-30T05:08:32.419Z,62.27
2019-05-30T05:09:13.984Z,62.08
2019-05-30T05:09:53.545Z,61.8
2019-05-30T05:10:34.158Z,62.08
2019-05-30T05:11:17.033Z,61.99
2019-05-30T05:11:55.295Z,62.08
2019-05-30T05:12:35.897Z,61.8
2019-05-30T05:13:16.481Z,62.08
2019-05-30T05:13:57.114Z,62.37
2019-05-30T05:14:37.688Z,62.27
2019-05-30T05:15:18.648Z,62.37
2019-05-30T05:15:58.847Z,62.37
2019-05-30T05:16:39.421Z,62.84
2019-05-30T05:17:20.918Z,62.37
2019-05-30T05:18:00.589Z,62.27
2019-05-30T05:18:41.155Z,62.46
2019-05-30T05:19:22.901Z,62.56
2019-05-30T05:20:02.319Z,62.08
2019-05-30T05:20:42.923Z,62.46
2019-05-30T05:21:23.518Z,62.08
2019-05-30T05:22:04.112Z,61.99
2019-05-30T05:22:44.723Z,62.27
2019-05-30T05:23:25.304Z,62.27
2019-05-30T05:24:05.883Z,62.37
2019-05-30T05:24:46.481Z,62.59
2019-05-30T05:25:27.069Z,62.21
2019-05-30T05:26:07.667Z,62.11
2019-05-30T05:26:48.241Z,62.02
2019-05-30T05:27:28.831Z,62.21
2019-05-30T05:28:09.441Z,62.11
2019-05-30T05:28:50.055Z,61.44
2019-05-30T05:29:30.641Z,60.81
2019-05-30T05:30:11.237Z,60.42
2019-05-30T05:30:51.823Z,60.42
2019-05-30T05:31:32.493Z,60.33
2019-05-30T05:32:14.047Z,59.85
2019-05-30T05:32:53.653Z,59.85
2019-05-30T05:33:34.231Z,59.41
2019-05-30T05:34:14.789Z,59.59
2019-05-30T05:34:55.408Z,59.12
2019-05-30T05:35:35.982Z,59.31
2019-05-30T05:36:16.836Z,58.64
2019-05-30T05:36:57.156Z,58.67
2019-05-30T05:37:37.734Z,58.38
2019-05-30T05:38:18.315Z,57.9
2019-05-30T05:38:58.925Z,57.43
2019-05-30T05:39:39.520Z,57.9
2019-05-30T05:40:20.174Z,57.24
2019-05-30T05:41:00.676Z,57.07
2019-05-30T05:41:41.231Z,56.02
2019-05-30T05:42:22.403Z,56.02
2019-05-30T05:43:02.441Z,55.54
2019-05-30T05:43:43.022Z,55.07
2019-05-30T05:44:24.519Z,54.68
2019-05-30T05:45:04.203Z,54.68
2019-05-30T05:45:44.777Z,57.2
2019-05-30T05:46:25.368Z,58.34
2019-05-30T05:47:06.021Z,58.25
2019-05-30T05:47:46.600Z,57.1
2019-05-30T05:48:27.184Z,56.84
2019-05-30T05:49:07.767Z,57.99
2019-05-30T05:49:48.348Z,57.99
2019-05-30T05:50:28.923Z,57.04
2019-05-30T05:51:09.519Z,55.12
2019-05-30T05:51:50.112Z,55.15
2019-05-30T05:52:30.697Z,54.1
2019-05-30T05:53:11.291Z,53.52
2019-05-30T05:53:51.865Z,54
2019-05-30T05:54:32.459Z,54.6
2019-05-30T05:55:13.060Z,53.55
2019-05-30T05:55:53.654Z,52.69
2019-05-30T05:56:34.271Z,53.26
2019-05-30T05:57:14.859Z,53.26
2019-05-30T05:57:55.447Z,51.85
2019-05-30T05:58:36.029Z,51.63
2019-05-30T05:59:17.058Z,52.3
2019-05-30T05:59:57.226Z,51.56
2019-05-30T06:00:37.832Z,51.95
2019-05-30T06:01:19.363Z,52.23
2019-05-30T06:01:59.025Z,52.33
2019-05-30T06:02:39.593Z,52.16
2019-05-30T06:03:20.406Z,51.4
2019-05-30T06:04:12.400Z,50.73
2019-05-30T06:04:41.363Z,50.82
2019-05-30T06:05:22.257Z,51.1
2019-05-30T06:06:02.554Z,50.82
2019-05-30T06:06:43.182Z,51.01
2019-05-30T06:07:24.558Z,50.53
2019-05-30T06:08:04.424Z,50.24
2019-05-30T06:08:45.026Z,50.53
2019-05-30T06:09:25.661Z,50.56
2019-05-30T06:10:06.320Z,51.32
2019-05-30T06:10:46.943Z,50.46
2019-05-30T06:11:28.564Z,50.27
2019-05-30T06:12:08.207Z,49.6
2019-05-30T06:12:48.816Z,48.95
2019-05-30T06:13:29.423Z,49.05
2019-05-30T06:14:10.034Z,48.38
2019-05-30T06:14:50.649Z,47.41
2019-05-30T06:15:31.301Z,47.71
2019-05-30T06:16:11.929Z,47.03
2019-05-30T06:16:55.539Z,46.94
2019-05-30T06:17:33.241Z,47.03
2019-05-30T06:18:13.819Z,46.36
2019-05-30T06:18:54.450Z,46.74
2019-05-30T06:19:45.731Z,45.78
2019-05-30T06:20:15.691Z,45.78
2019-05-30T06:20:56.272Z,46.84
2019-05-30T06:21:36.868Z,46.74
2019-05-30T06:22:17.504Z,46.74
2019-05-30T06:22:58.041Z,46.26
2019-05-30T06:23:38.635Z,46.26
2019-05-30T06:24:19.573Z,46.48
2019-05-30T06:24:59.807Z,46
2019-05-30T06:25:40.385Z,45.42
2019-05-30T06:26:22.450Z,45.04
2019-05-30T06:27:01.584Z,44.75
2019-05-30T06:27:42.160Z,44.75
2019-05-30T06:28:24.051Z,45.14
2019-05-30T06:29:03.640Z,45.52
2019-05-30T06:29:43.962Z,45.9
2019-05-30T06:30:24.571Z,46.09
2019-05-30T06:31:05.535Z,45.64
2019-05-30T06:31:46.133Z,45.83
2019-05-30T06:32:26.817Z,45.15
2019-05-30T06:33:07.352Z,44.48
2019-05-30T06:33:48.091Z,44.38
2019-05-30T06:34:38.255Z,44.31
2019-05-30T06:35:09.329Z,44.6
2019-05-30T06:35:49.933Z,43.93
2019-05-30T06:36:30.531Z,43.84
2019-05-30T06:37:12.112Z,43.35
2019-05-30T06:37:51.793Z,43.45
2019-05-30T06:38:32.408Z,43.16
2019-05-30T06:39:13.000Z,43.45
2019-05-30T06:39:53.612Z,43.16
2019-05-30T06:40:34.189Z,43.45
2019-05-30T06:41:14.772Z,43.16
2019-05-30T06:41:55.372Z,43.07
2019-05-30T06:42:35.999Z,43.26
2019-05-30T06:43:16.626Z,42.68
2019-05-30T06:43:57.228Z,42.87
2019-05-30T06:44:37.845Z,42.39
2019-05-30T06:45:18.431Z,42.49
2019-05-30T06:45:59.016Z,42.3
2019-05-30T06:46:39.632Z,42.58
2019-05-30T06:47:20.234Z,42.32
2019-05-30T06:48:00.819Z,41.93
2019-05-30T06:48:41.402Z,41.93
2019-05-30T06:49:22.743Z,41.64
2019-05-30T06:50:02.590Z,41.93
2019-05-30T06:50:43.173Z,41.83
2019-05-30T06:51:24.829Z,41.26
2019-05-30T06:52:04.398Z,41.64
2019-05-30T06:52:45.003Z,41.64
2019-05-30T06:53:25.579Z,42.32
2019-05-30T06:54:06.176Z,42.41
2019-05-30T06:54:46.749Z,42.41
2019-05-30T06:55:27.394Z,42.82
2019-05-30T06:56:07.933Z,42.05
2019-05-30T06:56:48.504Z,42.05
2019-05-30T06:57:29.369Z,40.99
2019-05-30T06:58:09.707Z,40.8
2019-05-30T06:58:50.314Z,40.03
2019-05-30T06:59:31.805Z,39.26
2019-05-30T07:00:11.513Z,38.68
2019-05-30T07:00:52.096Z,38.66
2019-05-30T07:01:32.701Z,39.04
2019-05-30T07:02:13.292Z,39.43
2019-05-30T07:02:54.175Z,39.91
2019-05-30T07:03:34.750Z,40.3
2019-05-30T07:04:15.705Z,39.43
2019-05-30T07:04:56.382Z,39.81
2019-05-30T07:05:36.931Z,40.39
2019-05-30T07:06:17.443Z,41.26
2019-05-30T07:06:57.909Z,40.39
2019-05-30T07:07:38.454Z,39.33
2019-05-30T07:08:18.860Z,40.11
2019-05-30T07:08:59.479Z,39.62
2019-05-30T07:09:40.072Z,39.53
2019-05-30T07:10:20.660Z,39.62
2019-05-30T07:11:01.272Z,39.62
2019-05-30T07:11:41.861Z,39.24
2019-05-30T07:12:22.889Z,39.33
2019-05-30T07:13:03.058Z,39.62
2019-05-30T07:13:43.667Z,40.2
2019-05-30T07:14:25.185Z,40.39
2019-05-30T07:15:04.858Z,40.78
2019-05-30T07:15:45.441Z,40.31
2019-05-30T07:16:27.249Z,39.36
2019-05-30T07:17:06.652Z,39.74
2019-05-30T07:17:47.250Z,40.89
2019-05-30T07:18:31.037Z,39.45
2019-05-30T07:19:08.434Z,38.78
2019-05-30T07:19:49.042Z,38.49
2019-05-30T07:20:29.763Z,39.06
2019-05-30T07:21:10.235Z,38.49
2019-05-30T07:21:50.832Z,39.06
2019-05-30T07:22:31.848Z,39.16
2019-05-30T07:23:11.995Z,39.64
2019-05-30T07:23:52.617Z,39.28
2019-05-30T07:24:33.922Z,39.95
2019-05-30T07:25:13.826Z,38.31
2019-05-30T07:25:54.450Z,37.64
2019-05-30T07:26:35.040Z,38.51
2019-05-30T07:27:15.625Z,36.58
2019-05-30T07:27:56.213Z,35.91
2019-05-30T07:28:37.067Z,36.29
2019-05-30T07:29:17.857Z,36.19
2019-05-30T07:29:58.445Z,35.24
2019-05-30T07:30:39.035Z,36.27
2019-05-30T07:31:19.627Z,36.1
2019-05-30T07:32:00.245Z,35.33
2019-05-30T07:32:40.863Z,35.31
2019-05-30T07:33:21.422Z,35.12
2019-05-30T07:34:02.002Z,34.64
2019-05-30T07:34:45.849Z,35.22
2019-05-30T07:35:23.911Z,36.76
2019-05-30T07:36:03.868Z,36.27
2019-05-30T07:36:44.460Z,34.92
2019-05-30T07:37:26.093Z,34.45
2019-05-30T07:38:05.668Z,34.16
2019-05-30T07:38:46.271Z,34.35
2019-05-30T07:39:29.679Z,35.02
2019-05-30T07:40:07.456Z,36.27
2019-05-30T07:40:48.037Z,37.24
2019-05-30T07:41:28.821Z,36.39
2019-05-30T07:42:09.251Z,35.14
2019-05-30T07:42:49.840Z,34.84
2019-05-30T07:43:31.781Z,34.56
2019-05-30T07:44:11.026Z,34.17
2019-05-30T07:44:51.627Z,34.84
2019-05-30T07:45:33.118Z,35.71
2019-05-30T07:46:12.876Z,35.52
2019-05-30T07:46:53.474Z,34.84
2019-05-30T07:47:34.323Z,34.84
2019-05-30T07:48:14.689Z,34.08
2019-05-30T07:48:55.284Z,33.89
2019-05-30T07:49:35.853Z,34.17
2019-05-30T07:50:16.459Z,34.27
2019-05-30T07:50:57.081Z,33.69
2019-05-30T07:51:38.852Z,34.37
2019-05-30T07:52:18.278Z,34.56
2019-05-30T07:52:58.895Z,34.66
2019-05-30T07:53:39.499Z,34.75
2019-05-30T07:54:20.098Z,34.46
2019-05-30T07:55:00.695Z,34.84
2019-05-30T07:55:41.299Z,35.42
2019-05-30T07:56:21.881Z,35.04
2019-05-30T07:57:02.492Z,34.56
2019-05-30T07:57:43.098Z,34.58
2019-05-30T07:58:23.694Z,34.56
2019-05-30T07:59:04.290Z,34.56
2019-05-30T07:59:44.908Z,34.19
2019-05-30T08:00:25.457Z,34.19
2019-05-30T08:01:06.072Z,34.46
2019-05-30T08:01:46.665Z,34.77
2019-05-30T08:02:27.478Z,34.67
2019-05-30T08:03:07.836Z,35.06
2019-05-30T08:03:48.390Z,34.77
2019-05-30T08:04:29.448Z,34.67
2019-05-30T08:05:23.267Z,34.09
2019-05-30T08:05:50.174Z,33.51
2019-05-30T08:06:31.523Z,33.03
2019-05-30T08:07:11.351Z,33.71
2019-05-30T08:07:51.933Z,33.61
2019-05-30T08:08:32.503Z,34.38
2019-05-30T08:09:13.107Z,33.79
2019-05-30T08:09:53.758Z,34.09
2019-05-30T08:10:34.305Z,33.21
2019-05-30T08:11:14.891Z,32.34
2019-05-30T08:11:55.582Z,32.34
2019-05-30T08:12:36.294Z,32.73
2019-05-30T08:13:16.801Z,33.12
2019-05-30T08:13:57.416Z,33.5
2019-05-30T08:14:38.013Z,33.02
2019-05-30T08:15:18.615Z,33.4
2019-05-30T08:15:59.203Z,34.56
2019-05-30T08:16:39.862Z,34.08
2019-05-30T08:17:20.454Z,33.31
2019-05-30T08:18:01.064Z,33.12
2019-05-30T08:18:41.659Z,32.34
2019-05-30T08:19:22.260Z,32.54
2019-05-30T08:20:02.893Z,32.82
2019-05-30T08:20:43.523Z,32.52
2019-05-30T08:21:24.112Z,32.81
2019-05-30T08:22:04.670Z,33.5
2019-05-30T08:22:45.253Z,33.98
2019-05-30T08:23:25.828Z,34.56
2019-05-30T08:24:06.395Z,34.08
2019-05-30T08:24:46.986Z,33.4
2019-05-30T08:25:27.949Z,34.25
2019-05-30T08:26:08.221Z,34.25
2019-05-30T08:26:48.807Z,34.17
2019-05-30T08:27:30.126Z,34.56
2019-05-30T08:28:10.036Z,34.37
2019-05-30T08:28:50.634Z,33.4
2019-05-30T08:29:32.155Z,33.31
2019-05-30T08:30:11.798Z,33.59
2019-05-30T08:30:52.649Z,33.31
2019-05-30T08:31:34.505Z,33.48
2019-05-30T08:32:13.822Z,33.48
2019-05-30T08:32:54.391Z,33.87
2019-05-30T08:33:35.564Z,33.58
2019-05-30T08:34:15.530Z,33.48
2019-05-30T08:34:56.095Z,34.74
2019-05-30T08:35:47.380Z,35.41
2019-05-30T08:36:17.377Z,35.5
2019-05-30T08:36:58.006Z,35.22
2019-05-30T08:37:39.349Z,34.64
2019-05-30T08:38:19.245Z,33.87
2019-05-30T08:38:59.897Z,34.25
2019-05-30T08:39:40.559Z,35.7
2019-05-30T08:40:21.214Z,36.37
2019-05-30T08:41:01.833Z,35.89
2019-05-30T08:41:42.437Z,35.52
2019-05-30T08:42:23.228Z,34.54
2019-05-30T08:43:03.875Z,34.83
2019-05-30T08:43:44.556Z,34.37
2019-05-30T08:44:25.179Z,34.46
2019-05-30T08:45:08.948Z,34.64
2019-05-30T08:45:46.366Z,34.64
2019-05-30T08:46:26.967Z,35.5
2019-05-30T08:47:08.310Z,35.12
2019-05-30T08:47:49.020Z,34.92
2019-05-30T08:48:29.847Z,35.22
2019-05-30T08:49:10.715Z,35.31
2019-05-30T08:49:51.126Z,35.02
2019-05-30T08:50:32.355Z,35.12
2019-05-30T08:51:12.625Z,34.74
2019-05-30T08:51:53.789Z,34.83